Zhambyl, Kazakhstan

2:52 AM ALMT on November 27, 2014 (GMT +0600)
TARAZ | Change Station
CLOSE
Current Station
Airport
Location: TARAZ,
Elevation: 2182 ft
Nearby Weather Stations

Elev 2182 ft 42.85 °N, 71.30 °E | Updated 22 minutes ago

Mist
Mist
3 °F
Feels Like 3 °F
N
2
Wind Variable Wind from SE

Today
High -- | Low -- °F
--% Chance of Precip.
Yesterday
High -- | Low -- °F
Precip. -- in
8:20 AM 5:43 PM
Waxing Crescent, 22% visible
Pressure 30.04 in
Visibility 2.8 miles
Clouds
Dew Point 0 °F
Humidity 85%
Rainfall 0.00 in
Snow Depth Not available.
UV Not available.
Pollen Not available.
Air Quality Not available.
Flu Activity Not available.
METAR UADD 262030Z 14001MPS 4500 BR NSC M16/M18 Q1017 R13/790532 TEMPO 0200 FZFG VV002 RMK QFE706/0941

More Conditions Fewer Conditions

Pressure 30.04 in
Visibility 2.8 miles
Clouds
Dew Point 0 °F
Humidity 85%
Rainfall 0.00 in
Snow Depth Not available.
UV Not available.
Pollen Not available.
Air Quality Not available.
Flu Activity Not available.
METAR UADD 262030Z 14001MPS 4500 BR NSC M16/M18 Q1017 R13/790532 TEMPO 0200 FZFG VV002 RMK QFE706/0941

More Conditions Fewer Conditions

10-Day Weather Forecast

Almanac

Astronomy

Nov. 27, 2014 Rise Set
Actual Time
Civil Twilight
Nautical Twilight
Astronomical Twilight
Moon
Length of Visible Light
Length of Day
Tomorrow will be .
, % of the Moon is Illuminated

Today's Extremes

Country Highs Country Lows

Community

WunderPhotos

Upload Photos

1,773,860 photos uploaded!

WunderBlogs® & News

Nearby

Air Quality

  Air Quality AQ Index Pollutant
Not available.

Snow Depth

Station Depth Elevation

Earthquake Activity

City Distance Mag. Time & Date
Minimum magnitude displayed is 2.5.

Coastal Water Temperatures

Place Temperature

Nearby Weather Stations